createdAt,value
2018-12-06T00:00:17.211Z,13.43
2018-12-06T00:02:47.190Z,12.83
2018-12-06T00:05:16.155Z,12.77
2018-12-06T00:07:56.383Z,13.20
2018-12-06T00:10:25.325Z,13.37
2018-12-06T00:12:54.233Z,14.07
2018-12-06T00:15:27.569Z,12.97
2018-12-06T00:17:56.588Z,13.83
2018-12-06T00:20:25.501Z,12.77
2018-12-06T00:22:54.511Z,14.40
2018-12-06T00:25:24.350Z,13.17
2018-12-06T00:27:53.203Z,13.33
2018-12-06T00:30:38.628Z,13.27
2018-12-06T00:33:07.555Z,14.23
2018-12-06T00:35:36.459Z,12.30
2018-12-06T00:38:05.504Z,15.03
2018-12-06T00:40:34.437Z,13.63
2018-12-06T00:43:03.340Z,14.00
2018-12-06T00:45:32.245Z,14.63
2018-12-06T00:48:01.186Z,15.73
2018-12-06T00:50:30.087Z,13.73
2018-12-06T00:52:58.965Z,13.53
2018-12-06T00:55:27.845Z,16.03
2018-12-06T00:57:56.824Z,17.60
2018-12-06T01:00:25.729Z,14.20
2018-12-06T01:02:54.727Z,17.50
2018-12-06T01:05:23.687Z,14.77
2018-12-06T01:07:52.672Z,14.40
2018-12-06T01:10:21.609Z,15.70
2018-12-06T01:12:50.674Z,14.73
2018-12-06T01:15:19.484Z,17.13
2018-12-06T01:17:48.448Z,15.23
2018-12-06T01:20:17.533Z,16.83
2018-12-06T01:22:46.506Z,17.70
2018-12-06T01:25:15.397Z,15.97
2018-12-06T01:27:44.307Z,15.70
2018-12-06T01:30:13.197Z,16.20
2018-12-06T01:32:42.189Z,16.97
2018-12-06T01:35:11.181Z,16.70
2018-12-06T01:37:40.270Z,14.63
2018-12-06T01:40:09.229Z,16.03
2018-12-06T01:42:38.206Z,14.57
2018-12-06T01:45:07.314Z,14.83
2018-12-06T01:47:36.325Z,15.17
2018-12-06T01:50:05.792Z,15.43
2018-12-06T01:52:34.692Z,16.00
2018-12-06T01:55:03.641Z,16.10
2018-12-06T01:57:32.524Z,17.23
2018-12-06T02:00:01.397Z,15.13
2018-12-06T02:02:30.280Z,14.00
2018-12-06T02:04:59.188Z,16.17
2018-12-06T02:07:28.214Z,16.77
2018-12-06T02:09:57.173Z,16.00
2018-12-06T02:12:26.120Z,16.43
2018-12-06T02:14:55.035Z,15.90
2018-12-06T02:17:24.092Z,17.33
2018-12-06T02:19:52.957Z,17.17
2018-12-06T02:22:21.945Z,15.93
2018-12-06T02:24:50.945Z,18.20
2018-12-06T02:27:19.859Z,16.07
2018-12-06T02:29:55.029Z,16.63
2018-12-06T02:32:24.278Z,17.67
2018-12-06T02:34:53.178Z,15.90
2018-12-06T02:37:22.062Z,14.57
2018-12-06T02:39:50.900Z,15.60
2018-12-06T02:42:19.834Z,15.63
2018-12-06T02:44:48.835Z,14.93
2018-12-06T02:47:17.673Z,16.30
2018-12-06T02:49:46.679Z,17.03
2018-12-06T02:52:15.742Z,16.03
2018-12-06T02:54:44.638Z,15.97
2018-12-06T02:57:13.820Z,15.67
2018-12-06T02:59:42.733Z,17.27
2018-12-06T03:02:11.691Z,14.57
2018-12-06T03:04:40.640Z,15.60
2018-12-06T03:07:09.527Z,16.10
2018-12-06T03:09:38.517Z,14.97
2018-12-06T03:12:07.517Z,14.47
2018-12-06T03:14:36.404Z,15.03
2018-12-06T03:17:06.629Z,14.67
2018-12-06T03:19:35.473Z,16.53
2018-12-06T03:22:04.416Z,16.37
2018-12-06T03:24:33.364Z,15.33
2018-12-06T03:27:02.329Z,15.17
2018-12-06T03:29:31.417Z,15.00
2018-12-06T03:32:00.272Z,14.90
2018-12-06T03:34:29.206Z,14.87
2018-12-06T03:36:58.356Z,14.77
2018-12-06T03:39:27.865Z,15.03
2018-12-06T03:41:56.829Z,14.90
2018-12-06T03:44:25.884Z,15.00
2018-12-06T03:46:55.000Z,16.00
2018-12-06T03:49:23.866Z,16.73
2018-12-06T03:51:52.812Z,17.83
2018-12-06T03:54:21.671Z,15.07
2018-12-06T03:56:50.572Z,16.10
2018-12-06T03:59:19.615Z,15.57
2018-12-06T04:01:48.551Z,16.07
2018-12-06T04:04:17.512Z,14.60
2018-12-06T04:06:46.375Z,19.60
2018-12-06T04:09:15.268Z,15.50
2018-12-06T04:11:44.232Z,15.63
2018-12-06T04:14:13.142Z,15.60
2018-12-06T04:16:41.992Z,16.13
2018-12-06T04:19:10.983Z,15.97
2018-12-06T04:21:39.900Z,22.77
2018-12-06T04:24:08.873Z,15.20
2018-12-06T04:26:37.764Z,15.53
2018-12-06T04:29:06.638Z,15.63
2018-12-06T04:31:37.289Z,15.97
2018-12-06T04:34:08.242Z,16.10
2018-12-06T04:36:37.176Z,18.73
2018-12-06T04:39:07.764Z,19.63
2018-12-06T04:41:36.680Z,16.10
2018-12-06T04:44:05.705Z,16.93
2018-12-06T04:46:34.631Z,18.03
2018-12-06T04:49:03.594Z,17.40
2018-12-06T04:51:32.569Z,17.03
2018-12-06T04:54:01.514Z,16.17
2018-12-06T04:56:30.445Z,17.43
2018-12-06T04:58:59.400Z,18.43
2018-12-06T05:01:28.316Z,19.50
2018-12-06T05:03:57.272Z,17.87
2018-12-06T05:06:26.215Z,17.70
2018-12-06T05:08:55.101Z,19.63
2018-12-06T05:11:24.040Z,19.30
2018-12-06T05:13:53.176Z,20.00
2018-12-06T05:16:22.074Z,22.97
2018-12-06T05:18:51.094Z,18.93
2018-12-06T05:21:19.932Z,19.67
2018-12-06T05:23:49.053Z,22.27
2018-12-06T05:26:18.999Z,21.17
2018-12-06T05:28:47.909Z,21.30
2018-12-06T05:31:16.750Z,20.87
2018-12-06T05:33:45.697Z,20.73
2018-12-06T05:36:14.644Z,19.87
2018-12-06T05:38:43.634Z,21.60
2018-12-06T05:41:12.670Z,24.93
2018-12-06T05:43:41.770Z,23.77
2018-12-06T05:46:10.719Z,25.30
2018-12-06T05:48:39.611Z,22.93
2018-12-06T05:51:08.476Z,26.97
2018-12-06T05:53:37.422Z,29.80
2018-12-06T05:56:06.327Z,27.40
2018-12-06T05:58:35.281Z,26.97
2018-12-06T06:01:04.265Z,32.57
2018-12-06T06:03:33.385Z,27.73
2018-12-06T06:06:02.411Z,32.03
2018-12-06T06:08:31.346Z,30.53
2018-12-06T06:11:00.251Z,30.83
2018-12-06T06:13:30.173Z,32.37
2018-12-06T06:15:59.124Z,29.97
2018-12-06T06:18:28.045Z,30.23
2018-12-06T06:20:57.006Z,29.83
2018-12-06T06:23:25.908Z,28.10
2018-12-06T06:25:54.886Z,32.70
2018-12-06T06:28:23.932Z,29.57
2018-12-06T06:30:52.851Z,27.77
2018-12-06T06:33:21.794Z,33.43
2018-12-06T06:35:51.757Z,34.87
2018-12-06T06:38:20.746Z,35.33
2018-12-06T06:40:49.632Z,30.80
2018-12-06T06:43:18.568Z,36.67
2018-12-06T06:45:47.553Z,34.93
2018-12-06T06:48:16.575Z,35.60
2018-12-06T06:50:45.415Z,31.73
2018-12-06T06:53:14.342Z,34.40
2018-12-06T06:55:43.235Z,34.30
2018-12-06T06:58:12.196Z,33.30
2018-12-06T07:00:41.523Z,33.67
2018-12-06T07:03:10.417Z,34.30
2018-12-06T07:05:39.325Z,35.50
2018-12-06T07:08:08.331Z,37.90
2018-12-06T07:10:37.241Z,35.33
2018-12-06T07:13:06.131Z,38.77
2018-12-06T07:15:35.186Z,36.03
2018-12-06T07:18:04.177Z,38.50
2018-12-06T07:20:33.121Z,38.03
2018-12-06T07:23:02.121Z,35.33
2018-12-06T07:25:31.000Z,32.90
2018-12-06T07:27:59.957Z,35.53
2018-12-06T07:30:28.877Z,32.43
2018-12-06T07:32:57.849Z,32.17
2018-12-06T07:35:26.674Z,34.00
2018-12-06T07:37:55.596Z,36.37
2018-12-06T07:40:24.537Z,32.27
2018-12-06T07:42:53.642Z,33.37
2018-12-06T07:45:22.602Z,32.47
2018-12-06T07:47:52.486Z,34.83
2018-12-06T07:50:21.480Z,33.73
2018-12-06T07:52:50.442Z,34.00
2018-12-06T07:55:19.359Z,37.17
2018-12-06T07:57:48.238Z,35.40
2018-12-06T08:00:17.221Z,39.57
2018-12-06T08:02:46.410Z,40.23
2018-12-06T08:05:15.336Z,39.33
2018-12-06T08:07:44.232Z,42.03
2018-12-06T08:10:13.159Z,38.53
2018-12-06T08:12:43.201Z,38.53
2018-12-06T08:15:12.185Z,38.73
2018-12-06T08:17:41.205Z,39.60
2018-12-06T08:20:10.141Z,37.27
2018-12-06T08:22:39.105Z,38.97
2018-12-06T08:25:08.109Z,36.27
2018-12-06T08:27:36.975Z,40.93
2018-12-06T08:30:06.227Z,36.03
2018-12-06T08:32:35.133Z,39.63
2018-12-06T08:35:03.999Z,37.80
2018-12-06T08:37:34.535Z,36.53
2018-12-06T08:40:05.681Z,35.40
2018-12-06T08:42:34.788Z,40.63
2018-12-06T08:45:03.826Z,37.00
2018-12-06T08:47:32.818Z,38.40
2018-12-06T08:50:01.702Z,36.40
2018-12-06T08:52:30.633Z,35.03
2018-12-06T08:54:59.546Z,38.97
2018-12-06T08:57:28.522Z,37.70
2018-12-06T08:59:57.455Z,35.33
2018-12-06T09:02:26.332Z,34.60
2018-12-06T09:04:55.233Z,41.40
2018-12-06T09:07:24.076Z,36.80
2018-12-06T09:09:53.151Z,39.33
2018-12-06T09:12:22.089Z,40.30
2018-12-06T09:14:51.048Z,39.27
2018-12-06T09:17:20.004Z,40.60
2018-12-06T09:19:49.504Z,37.70
2018-12-06T09:22:18.513Z,41.63
2018-12-06T09:24:47.583Z,42.70
2018-12-06T09:27:16.518Z,39.03
2018-12-06T09:29:45.504Z,37.20
2018-12-06T09:32:14.351Z,39.07
2018-12-06T09:34:43.315Z,39.80
2018-12-06T09:37:12.236Z,39.97
2018-12-06T09:39:41.346Z,37.47
2018-12-06T09:42:10.278Z,41.07
2018-12-06T09:44:39.219Z,37.17
2018-12-06T09:47:09.051Z,42.30
2018-12-06T09:49:37.986Z,41.40
2018-12-06T09:52:06.856Z,39.50
2018-12-06T09:54:35.733Z,46.40
2018-12-06T09:57:04.606Z,41.83
2018-12-06T10:00:13.980Z,42.90
2018-12-06T10:02:43.122Z,43.70
2018-12-06T10:05:12.109Z,44.33
2018-12-06T10:07:41.388Z,42.40
2018-12-06T10:10:10.373Z,45.10
2018-12-06T10:12:43.601Z,44.23
2018-12-06T10:15:14.024Z,48.70
2018-12-06T10:17:44.158Z,43.93
2018-12-06T10:20:13.301Z,44.93
2018-12-06T10:22:43.159Z,47.37
2018-12-06T10:25:12.097Z,49.93
2018-12-06T10:27:41.047Z,51.13
2018-12-06T10:30:10.165Z,46.83
2018-12-06T10:32:39.102Z,46.33
2018-12-06T10:35:08.100Z,42.40
2018-12-06T10:37:37.532Z,48.03
2018-12-06T10:40:07.093Z,51.33
2018-12-06T10:42:36.316Z,44.43
2018-12-06T10:45:06.333Z,44.80
2018-12-06T10:47:35.343Z,41.97
2018-12-06T10:50:04.963Z,43.03
2018-12-06T10:52:33.845Z,43.47
2018-12-06T10:55:02.981Z,44.57
2018-12-06T10:57:31.971Z,44.80
2018-12-06T11:00:01.371Z,43.23
2018-12-06T11:02:48.405Z,45.13
2018-12-06T11:05:17.949Z,45.20
2018-12-06T11:07:46.953Z,42.50
2018-12-06T11:10:15.882Z,43.77
2018-12-06T11:12:45.099Z,47.33
2018-12-06T11:15:14.139Z,45.07
2018-12-06T11:17:43.099Z,45.37
2018-12-06T11:20:12.259Z,50.83
2018-12-06T11:22:41.115Z,48.83
2018-12-06T11:25:10.061Z,46.00
2018-12-06T11:27:38.979Z,41.27
2018-12-06T11:30:07.999Z,40.07
2018-12-06T11:32:36.940Z,47.43
2018-12-06T11:35:05.923Z,42.93
2018-12-06T11:37:34.947Z,41.83
2018-12-06T11:40:04.153Z,44.13
2018-12-06T11:42:33.104Z,37.67
2018-12-06T11:45:02.112Z,39.67
2018-12-06T11:47:31.053Z,38.27
2018-12-06T11:50:00.148Z,37.47
2018-12-06T11:52:29.049Z,36.60
2018-12-06T11:54:58.003Z,33.70
2018-12-06T11:57:26.899Z,37.80
2018-12-06T11:59:55.847Z,33.43
2018-12-06T12:02:24.839Z,31.27
2018-12-06T12:04:53.862Z,31.07
2018-12-06T12:07:22.756Z,28.83
2018-12-06T12:09:51.663Z,31.30
2018-12-06T12:12:20.610Z,29.07
2018-12-06T12:14:51.546Z,26.93
2018-12-06T12:17:20.596Z,28.60
2018-12-06T12:19:49.474Z,28.23
2018-12-06T12:22:18.383Z,26.27
2018-12-06T12:24:47.333Z,26.17
2018-12-06T12:27:16.383Z,24.80
2018-12-06T12:29:45.385Z,25.63
2018-12-06T12:32:14.312Z,26.27
2018-12-06T12:34:43.183Z,26.03
2018-12-06T12:37:12.344Z,24.83
2018-12-06T12:39:41.276Z,24.47
2018-12-06T12:42:10.280Z,26.97
2018-12-06T12:44:39.314Z,24.83
2018-12-06T12:47:08.305Z,23.63
2018-12-06T12:49:37.259Z,24.47
2018-12-06T12:52:06.183Z,25.17
2018-12-06T12:54:35.290Z,22.67
2018-12-06T12:57:04.273Z,23.80
2018-12-06T12:59:33.252Z,27.23
2018-12-06T13:02:02.228Z,30.67
2018-12-06T13:04:31.162Z,30.20
2018-12-06T13:07:09.322Z,32.40
2018-12-06T13:09:38.448Z,29.27
2018-12-06T13:12:07.380Z,29.77
2018-12-06T13:14:36.394Z,36.10
2018-12-06T13:17:05.640Z,31.30
2018-12-06T13:19:34.650Z,34.20
2018-12-06T13:22:03.668Z,33.70
2018-12-06T13:24:32.549Z,35.63
2018-12-06T13:27:01.598Z,33.07
2018-12-06T13:29:30.523Z,34.07
2018-12-06T13:31:59.442Z,35.93
2018-12-06T13:34:28.653Z,38.50
2018-12-06T13:36:57.702Z,34.17
2018-12-06T13:39:26.638Z,34.90
2018-12-06T13:41:55.545Z,32.77
2018-12-06T13:44:24.467Z,34.73
2018-12-06T13:46:53.359Z,35.57
2018-12-06T13:49:22.371Z,34.50
2018-12-06T13:51:51.269Z,34.80
2018-12-06T13:54:26.930Z,32.50
2018-12-06T13:56:54.150Z,35.00
2018-12-06T13:59:23.026Z,35.70
2018-12-06T14:01:51.945Z,33.40
2018-12-06T14:04:20.873Z,34.93
2018-12-06T14:06:49.733Z,32.00
2018-12-06T14:09:18.850Z,31.33
2018-12-06T14:11:47.877Z,36.50
2018-12-06T14:14:16.820Z,41.13
2018-12-06T14:16:45.704Z,33.43
2018-12-06T14:19:14.573Z,32.80
2018-12-06T14:21:43.444Z,38.17
2018-12-06T14:24:12.307Z,35.23
2018-12-06T14:26:41.277Z,41.63
2018-12-06T14:29:10.145Z,34.10
2018-12-06T14:31:39.149Z,36.73
2018-12-06T14:34:08.056Z,37.00
2018-12-06T14:36:36.991Z,37.17
2018-12-06T14:39:08.639Z,32.57
2018-12-06T14:41:37.790Z,32.47
2018-12-06T14:44:06.734Z,32.27
2018-12-06T14:46:35.656Z,33.77
2018-12-06T14:49:04.570Z,30.97
2018-12-06T14:51:33.632Z,31.30
2018-12-06T14:54:02.548Z,35.63
2018-12-06T14:56:31.480Z,43.53
2018-12-06T14:59:00.375Z,34.03
2018-12-06T15:01:29.270Z,33.67
2018-12-06T15:03:58.282Z,29.83
2018-12-06T15:06:27.229Z,31.77
2018-12-06T15:08:56.143Z,30.60
2018-12-06T15:11:25.167Z,31.43
2018-12-06T15:13:54.142Z,27.97
2018-12-06T15:16:23.113Z,27.07
2018-12-06T15:18:52.084Z,26.17
2018-12-06T15:21:21.006Z,29.70
2018-12-06T15:23:49.950Z,29.37
2018-12-06T15:26:18.825Z,27.83
2018-12-06T15:28:47.787Z,29.93
2018-12-06T15:31:16.733Z,29.90
2018-12-06T15:33:45.678Z,26.83
2018-12-06T15:36:14.764Z,29.47
2018-12-06T15:38:43.660Z,29.20
2018-12-06T15:41:12.620Z,29.60
2018-12-06T15:43:41.492Z,31.97
2018-12-06T15:46:10.473Z,31.40
2018-12-06T15:48:39.381Z,31.67
2018-12-06T15:51:08.408Z,31.73
2018-12-06T15:53:37.461Z,32.80
2018-12-06T15:56:06.340Z,34.23
2018-12-06T15:58:35.570Z,35.10
2018-12-06T16:01:04.771Z,35.40
2018-12-06T16:03:33.739Z,34.97
2018-12-06T16:06:02.980Z,35.87
2018-12-06T16:08:31.862Z,36.73
2018-12-06T16:11:00.899Z,36.93
2018-12-06T16:13:29.875Z,36.93
2018-12-06T16:15:59.463Z,30.70
2018-12-06T16:18:28.354Z,30.43
2018-12-06T16:20:57.305Z,24.93
2018-12-06T16:23:26.764Z,23.33
2018-12-06T16:25:55.979Z,22.53
2018-12-06T16:28:24.913Z,24.73
2018-12-06T16:30:54.031Z,21.10
2018-12-06T16:33:23.024Z,23.50
2018-12-06T16:35:51.982Z,23.40
2018-12-06T16:38:21.055Z,23.67
2018-12-06T16:40:50.010Z,19.07
2018-12-06T16:43:18.904Z,23.47
2018-12-06T16:45:47.826Z,18.87
2018-12-06T16:48:16.860Z,19.23
2018-12-06T16:50:45.903Z,18.80
2018-12-06T16:53:14.919Z,25.43
2018-12-06T16:55:43.986Z,17.33
2018-12-06T16:58:12.932Z,19.80
2018-12-06T17:00:42.027Z,17.60
2018-12-06T17:03:11.548Z,19.23
2018-12-06T17:05:40.842Z,18.60
2018-12-06T17:08:10.099Z,17.10
2018-12-06T17:10:39.286Z,16.60
2018-12-06T17:13:08.673Z,17.90
2018-12-06T17:15:37.714Z,17.57
2018-12-06T17:18:06.793Z,17.37
2018-12-06T17:20:36.053Z,19.87
2018-12-06T17:23:05.181Z,17.53
2018-12-06T17:25:35.059Z,17.90
2018-12-06T17:28:04.760Z,17.97
2018-12-06T17:30:33.721Z,18.63
2018-12-06T17:33:02.658Z,19.00
2018-12-06T17:35:31.818Z,17.77
2018-12-06T17:38:01.042Z,16.77
2018-12-06T17:40:30.219Z,16.93
2018-12-06T17:42:59.682Z,20.13
2018-12-06T17:45:28.946Z,17.40
2018-12-06T17:47:58.010Z,19.97
2018-12-06T17:50:26.899Z,19.13
2018-12-06T17:52:55.919Z,18.43
2018-12-06T17:55:25.152Z,18.87
2018-12-06T17:57:54.213Z,17.17
2018-12-06T18:00:23.593Z,17.37
2018-12-06T18:02:52.714Z,19.33
2018-12-06T18:05:21.863Z,16.07
2018-12-06T18:07:51.082Z,16.03
2018-12-06T18:10:20.381Z,16.07
2018-12-06T18:12:49.457Z,16.10
2018-12-06T18:15:19.000Z,17.27
2018-12-06T18:17:48.117Z,14.40
2018-12-06T18:20:17.318Z,14.23
2018-12-06T18:22:46.232Z,15.43
2018-12-06T18:25:15.299Z,16.43
2018-12-06T18:27:44.266Z,16.33
2018-12-06T18:30:13.233Z,19.00
2018-12-06T18:32:42.119Z,15.57
2018-12-06T18:35:11.062Z,16.70
2018-12-06T18:37:39.981Z,15.33
2018-12-06T18:40:08.903Z,14.57
2018-12-06T18:42:38.135Z,16.27
2018-12-06T18:45:07.400Z,16.47
2018-12-06T18:47:36.426Z,23.03
2018-12-06T18:50:05.533Z,20.63
2018-12-06T18:52:34.703Z,18.43
2018-12-06T18:55:03.698Z,17.83
2018-12-06T18:57:32.727Z,17.87
2018-12-06T19:00:02.901Z,14.13
2018-12-06T19:02:31.853Z,16.80
2018-12-06T19:05:07.401Z,15.37
2018-12-06T19:07:36.261Z,16.07
2018-12-06T19:10:05.505Z,13.97
2018-12-06T19:12:34.811Z,15.03
2018-12-06T19:15:04.013Z,13.63
2018-12-06T19:17:32.926Z,14.73
2018-12-06T19:20:01.915Z,13.60
2018-12-06T19:22:31.245Z,13.17
2018-12-06T19:25:00.424Z,14.70
2018-12-06T19:27:29.747Z,12.90
2018-12-06T19:29:58.696Z,15.40
2018-12-06T19:32:27.887Z,12.00
2018-12-06T19:34:56.909Z,13.53
2018-12-06T19:37:26.079Z,12.83
2018-12-06T19:39:54.944Z,14.37
2018-12-06T19:42:23.900Z,14.20
2018-12-06T19:44:52.758Z,12.80
2018-12-06T19:47:21.713Z,12.53
2018-12-06T19:49:50.688Z,13.53
2018-12-06T19:52:19.636Z,14.63
2018-12-06T19:54:48.874Z,13.13
2018-12-06T19:57:17.903Z,12.50
2018-12-06T19:59:47.071Z,12.90
2018-12-06T20:02:16.243Z,12.03
2018-12-06T20:04:45.358Z,11.90
2018-12-06T20:07:15.564Z,12.47
2018-12-06T20:09:44.744Z,11.60
2018-12-06T20:12:14.036Z,11.30
2018-12-06T20:14:43.267Z,11.43
2018-12-06T20:17:12.306Z,12.30
2018-12-06T20:19:41.594Z,11.03
2018-12-06T20:22:10.513Z,11.50
2018-12-06T20:24:39.748Z,10.20
2018-12-06T20:27:08.980Z,10.27
2018-12-06T20:29:38.184Z,10.53
2018-12-06T20:32:14.448Z,10.97
2018-12-06T20:34:38.559Z,10.50
2018-12-06T20:37:07.707Z,13.37
2018-12-06T20:39:36.749Z,9.93
2018-12-06T20:42:05.717Z,10.00
2018-12-06T20:44:34.719Z,9.73
2018-12-06T20:47:03.658Z,9.97
2018-12-06T20:49:32.516Z,10.30
2018-12-06T20:52:01.459Z,9.20
2018-12-06T20:54:30.503Z,9.53
2018-12-06T20:56:59.489Z,10.47
2018-12-06T20:59:28.514Z,12.03
2018-12-06T21:01:57.648Z,9.77
2018-12-06T21:04:26.550Z,9.63
2018-12-06T21:06:55.807Z,9.60
2018-12-06T21:09:24.763Z,9.33
2018-12-06T21:11:53.716Z,11.00
2018-12-06T21:14:22.721Z,10.07
2018-12-06T21:16:51.733Z,10.23
2018-12-06T21:19:20.649Z,11.70
2018-12-06T21:21:49.951Z,10.37
2018-12-06T21:24:18.851Z,10.23
2018-12-06T21:26:47.720Z,10.33
2018-12-06T21:29:16.632Z,9.43
2018-12-06T21:31:45.819Z,10.00
2018-12-06T21:34:14.868Z,9.50
2018-12-06T21:36:44.829Z,10.13
2018-12-06T21:39:13.892Z,9.37
2018-12-06T21:41:42.865Z,12.20
2018-12-06T21:44:11.830Z,8.80
2018-12-06T21:46:40.853Z,8.33
2018-12-06T21:49:09.760Z,7.97
2018-12-06T21:51:38.746Z,13.10
2018-12-06T21:54:07.679Z,8.73
2018-12-06T21:56:36.628Z,9.40
2018-12-06T21:59:06.091Z,8.37
2018-12-06T22:01:35.087Z,7.63
2018-12-06T22:04:04.030Z,8.03
2018-12-06T22:06:32.969Z,7.40
2018-12-06T22:09:02.177Z,7.67
2018-12-06T22:11:32.425Z,8.20
2018-12-06T22:14:01.421Z,10.57
2018-12-06T22:16:30.402Z,8.00
2018-12-06T22:19:00.504Z,7.50
2018-12-06T22:21:29.510Z,7.53
2018-12-06T22:23:58.473Z,7.83
2018-12-06T22:26:27.541Z,7.43
2018-12-06T22:28:56.522Z,7.33
2018-12-06T22:31:25.628Z,7.23
2018-12-06T22:33:54.997Z,7.10
2018-12-06T22:36:23.973Z,6.37
2018-12-06T22:38:52.831Z,8.37
2018-12-06T22:41:21.847Z,7.60
2018-12-06T22:43:51.015Z,7.57
2018-12-06T22:46:20.108Z,6.17
2018-12-06T22:48:49.127Z,6.13
2018-12-06T22:51:24.163Z,7.13
2018-12-06T22:53:49.562Z,7.10
2018-12-06T22:56:18.470Z,7.37
2018-12-06T22:58:47.401Z,8.13
2018-12-06T23:01:18.379Z,7.37
2018-12-06T23:03:47.391Z,7.47
2018-12-06T23:06:17.111Z,7.97
2018-12-06T23:08:47.254Z,7.83
2018-12-06T23:11:16.348Z,7.63
2018-12-06T23:13:45.363Z,8.17
2018-12-06T23:16:14.869Z,7.67
2018-12-06T23:18:43.858Z,7.07
2018-12-06T23:21:12.807Z,8.27
2018-12-06T23:23:41.712Z,6.70
2018-12-06T23:26:10.596Z,6.83
2018-12-06T23:28:39.525Z,7.23
2018-12-06T23:31:08.537Z,6.43
2018-12-06T23:33:37.523Z,6.93
2018-12-06T23:36:06.491Z,7.50
2018-12-06T23:38:35.419Z,6.30
2018-12-06T23:41:04.292Z,6.50
2018-12-06T23:43:33.367Z,6.13
2018-12-06T23:46:02.323Z,6.47
2018-12-06T23:48:31.267Z,8.20
2018-12-06T23:51:11.667Z,6.37
2018-12-06T23:53:40.718Z,6.07
2018-12-06T23:56:09.750Z,6.57
2018-12-06T23:58:38.682Z,6.73
